createdAt,value
2023-04-21T22:27:29.887Z,934.15
2023-04-21T22:28:30.863Z,934.17
2023-04-21T22:29:30.831Z,934.25
2023-04-21T22:30:30.793Z,934.23
2023-04-21T22:31:31.587Z,934.27
2023-04-21T22:32:30.815Z,934.22
2023-04-21T22:33:30.740Z,934.25
2023-04-21T22:34:32.867Z,934.23
2023-04-21T22:35:31.602Z,934.22
2023-04-21T22:36:32.290Z,934.30
2023-04-21T22:37:30.694Z,934.28
2023-04-21T22:38:30.714Z,934.29
2023-04-21T22:39:32.648Z,934.29
2023-04-21T22:40:30.678Z,934.32
2023-04-21T22:41:30.706Z,934.33
2023-04-21T22:42:31.391Z,934.33
2023-04-21T22:43:30.608Z,934.35
2023-04-21T22:44:31.120Z,934.37
2023-04-21T22:45:30.599Z,934.41
2023-04-21T22:46:30.632Z,934.41
2023-04-21T22:47:31.499Z,934.49
2023-04-21T22:48:30.622Z,934.48
2023-04-21T22:49:30.559Z,934.46
2023-04-21T22:50:30.565Z,934.51
2023-04-21T22:51:31.267Z,934.51
2023-04-21T22:52:31.211Z,934.54
2023-04-21T22:53:30.531Z,934.52
2023-04-21T22:54:35.810Z,934.50
2023-04-21T22:55:30.517Z,934.55
2023-04-21T22:56:30.515Z,934.54
2023-04-21T22:57:31.239Z,934.51
2023-04-21T22:58:32.223Z,934.50
2023-04-21T22:59:30.958Z,934.51
2023-04-21T23:00:30.509Z,934.53
2023-04-21T23:01:30.542Z,934.52
2023-04-21T23:02:30.566Z,934.50
2023-04-21T23:03:30.600Z,934.46
2023-04-21T23:04:30.422Z,934.43
2023-04-21T23:05:30.355Z,934.47
2023-04-21T23:06:30.364Z,934.48
2023-04-21T23:07:30.328Z,934.48
2023-04-21T23:08:30.861Z,934.46
2023-04-21T23:09:30.353Z,934.51
2023-04-21T23:10:30.349Z,934.50
2023-04-21T23:11:30.953Z,934.53
2023-04-21T23:12:32.908Z,934.50
2023-04-21T23:13:30.981Z,934.53
2023-04-21T23:14:30.344Z,934.54
2023-04-21T23:15:30.274Z,934.54
2023-04-21T23:16:31.054Z,934.62
2023-04-21T23:17:31.674Z,934.57
2023-04-21T23:18:30.261Z,934.60
2023-04-21T23:19:30.239Z,934.56
2023-04-21T23:20:30.546Z,934.60
2023-04-21T23:21:30.916Z,934.59
2023-04-21T23:22:30.209Z,934.54
2023-04-21T23:23:30.859Z,934.61
2023-04-21T23:24:31.190Z,934.62
2023-04-21T23:25:30.162Z,934.67
2023-04-21T23:26:31.162Z,934.72
2023-04-21T23:27:30.866Z,934.66
2023-04-21T23:28:31.532Z,934.66
2023-04-21T23:29:30.095Z,934.64
2023-04-21T23:30:30.883Z,934.65
2023-04-21T23:31:30.090Z,934.67
2023-04-21T23:32:32.108Z,934.71
2023-04-21T23:33:30.051Z,934.68
2023-04-21T23:34:32.810Z,934.72
2023-04-21T23:35:30.042Z,934.73
2023-04-21T23:36:31.501Z,934.71
2023-04-21T23:37:31.722Z,934.71
2023-04-21T23:38:30.025Z,934.74
2023-04-21T23:39:30.750Z,934.73
2023-04-21T23:40:30.031Z,934.73
2023-04-21T23:41:29.997Z,934.69
2023-04-21T23:42:30.060Z,934.66
2023-04-21T23:43:30.473Z,934.68
2023-04-21T23:44:29.972Z,934.71
2023-04-21T23:45:29.890Z,934.68
2023-04-21T23:46:30.722Z,934.71
2023-04-21T23:47:29.926Z,934.73
2023-04-21T23:48:29.897Z,934.72
2023-04-21T23:49:29.864Z,934.73
2023-04-21T23:50:29.963Z,934.73
2023-04-21T23:51:29.893Z,934.74
2023-04-21T23:52:31.665Z,934.77
2023-04-21T23:53:30.468Z,934.76
2023-04-21T23:54:29.860Z,934.78
2023-04-21T23:55:31.377Z,934.75
2023-04-21T23:56:29.880Z,934.75
2023-04-21T23:57:29.792Z,934.78
2023-04-21T23:58:29.813Z,934.82
2023-04-21T23:59:38.618Z,934.79
